Home > Products > Valid Products > TAF

000
FTUS44 KLZK 011100
TAFPBF
TAF
KPBF 011136Z 0112/0212 22006KT P6SM SCT250
     FM011600 23007KT P6SM VCSH SCT050 BKN250
     FM011900 23009G18KT P6SM VCTS SCT050CB SCT100 BKN250=



000
FTUS44 KLZK 011100
TAFLIT
TAF
KLIT 011136Z 0112/0212 21006KT P6SM SCT250
     FM011600 23008G15KT P6SM VCSH SCT050 BKN250
     FM011900 23009G18KT P6SM VCTS SCT050CB SCT100 BKN250=



000
FTUS44 KLZK 011100
TAFHOT
TAF
KHOT 011136Z 0112/0212 23006KT P6SM SCT250
     FM011500 22009KT P6SM VCSH SCT050 BKN250
     FM011900 21008G18KT P6SM VCTS SCT050CB SCT100 BKN250=



000
FTUS44 KLZK 011100
TAFHRO
TAF
KHRO 011136Z 0112/0212 26008G15KT P6SM VCSH SCT030 BKN100 OVC250
     FM011500 24009G18KT P6SM FEW040 BKN100 OVC250
     FM011800 24010G20KT P6SM VCTS SCT050CB SCT100 BKN250=



000
FTUS44 KLZK 011100
TAFPBF
TAF
KPBF 011136Z 0112/0212 22006KT P6SM SCT250
     FM011600 23007KT P6SM VCSH SCT050 BKN250
     FM011900 23009G18KT P6SM VCTS SCT050CB SCT100 BKN250=



000
FTUS44 KLZK 011100
TAFHOT
TAF
KHOT 011136Z 0112/0212 23006KT P6SM SCT250
     FM011500 22009KT P6SM VCSH SCT050 BKN250
     FM011900 21008G18KT P6SM VCTS SCT050CB SCT100 BKN250=



000
FTUS44 KLZK 011100
TAFHRO
TAF
KHRO 011136Z 0112/0212 26008G15KT P6SM VCSH SCT030 BKN100 OVC250
     FM011500 24009G18KT P6SM FEW040 BKN100 OVC250
     FM011800 24010G20KT P6SM VCTS SCT050CB SCT100 BKN250=



000
FTUS44 KLZK 011100
TAFLIT
TAF
KLIT 011136Z 0112/0212 21006KT P6SM SCT250
     FM011600 23008G15KT P6SM VCSH SCT050 BKN250
     FM011900 23009G18KT P6SM VCTS SCT050CB SCT100 BKN250=



000
FTUS44 KLZK 011000 AAA
TAFHRO
TAF AMD
KHRO 011002Z 0110/0206 23008G18KT P6SM VCSH SCT100 BKN250
     FM011400 24009G19KT P6SM SCT100 BKN250
     FM011700 24010G20KT P6SM VCTS SCT050CB SCT100 BKN250=



000
FTUS44 KLZK 010500
TAFPBF
TAF
KPBF 010533Z 0106/0206 22005KT P6SM SCT060 SCT250
     FM011200 23006KT P6SM FEW015 SCT250
     FM011600 23007KT P6SM SCT050 SCT250
     FM011900 23009G18KT P6SM VCTS SCT050CB SCT100 BKN250=



000
FTUS44 KLZK 010500
TAFHOT
TAF
KHOT 010533Z 0106/0206 VRB03KT P6SM SCT250
     FM011500 22009KT P6SM SCT050 SCT250
     FM011900 21008G18KT P6SM VCTS SCT050CB SCT100 BKN250=



000
FTUS44 KLZK 010500
TAFLIT
TAF
KLIT 010533Z 0106/0206 19005KT P6SM SCT250
     FM011200 22006KT P6SM FEW015 SCT250
     FM011600 23008G15KT P6SM SCT050 SCT250
     FM011900 23009G18KT P6SM VCTS SCT050CB SCT100 BKN250=



000
FTUS44 KLZK 010500
TAFHRO
TAF
KHRO 010533Z 0106/0206 16005KT P6SM SCT250
     FM011400 24007G15KT P6SM SCT100 BKN250
     FM011700 24010G18KT P6SM VCTS SCT050CB SCT100 BKN250=



000
FTUS44 KLZK 302300
TAFPBF
TAF
KPBF 302326Z 0100/0124 24006KT P6SM FEW050
     FM010200 22003KT P6SM FEW250
     FM011200 23006KT P6SM SCT015 SCT250
     FM011600 25007KT P6SM SCT050 SCT250=



000
FTUS44 KLZK 302300
TAFHOT
TAF
KHOT 302326Z 0100/0124 24007KT P6SM FEW250
     FM010200 25003KT P6SM FEW250
     FM011600 23009KT P6SM SCT050 SCT250=



000
FTUS44 KLZK 302300
TAFHRO
TAF
KHRO 302326Z 0100/0124 VRB04KT P6SM SCT250
     FM011400 24007G15KT P6SM BKN100 BKN250=



000
FTUS44 KLZK 302300
TAFLIT
TAF
KLIT 302326Z 0100/0124 23006KT P6SM FEW250
     FM011200 23007KT P6SM SCT015 SCT250
     FM011600 25009KT P6SM SCT050 SCT250=



000
FTUS44 KLZK 301700
TAFLIT
TAF
KLIT 301729Z 3018/0118 32009KT P6SM SCT035 BKN250
     FM010100 22006KT P6SM SCT250
     FM011200 23007G15KT P6SM SCT015 BKN150=



000
FTUS44 KLZK 301700
TAFHRO
TAF
KHRO 301729Z 3018/0118 29007KT P6SM SCT250
     FM010000 23006KT P6SM BKN050
     FM010500 23006KT P6SM SCT050
     FM011400 24007G15KT P6SM BKN250=



000
FTUS44 KLZK 301700
TAFHOT
TAF
KHOT 301729Z 3018/0118 27005KT P6SM SCT050
     FM010100 26003KT P6SM SCT250
     FM010600 22005KT P6SM SCT020 BKN250
     FM011600 23006G15KT P6SM SCT020=



000
FTUS44 KLZK 301700
TAFPBF
TAF
KPBF 301729Z 3018/0118 25009KT P6SM SCT020 BKN250
      TEMPO 3022/0102 5SM TSRA BR OVC040CB
     FM010200 22006KT P6SM SCT250
     FM011300 23008G15KT P6SM SCT025 BKN250=



000
FTUS44 KLZK 301700
TAFPBF
TAF
KPBF 301729Z 3018/0118 25009KT P6SM SCT020 BKN250
      TEMPO 3022/0102 5SM TSRA BR OVC040CB
     FM010200 22006KT P6SM SCT250
     FM011300 23008G15KT P6SM SCT025 BKN250=



000
FTUS44 KLZK 301700
TAFHOT
TAF
KHOT 301729Z 3018/0118 27005KT P6SM SCT050
     FM010100 26003KT P6SM SCT250
     FM010600 22005KT P6SM SCT020 BKN250
     FM011600 23006G15KT P6SM SCT020=



000
FTUS44 KLZK 301700
TAFLIT
TAF
KLIT 301729Z 3018/0118 32009KT P6SM SCT035 BKN250
     FM010100 22006KT P6SM SCT250
     FM011200 23007G15KT P6SM SCT015 BKN150=



000
FTUS44 KLZK 301700
TAFHRO
TAF
KHRO 301729Z 3018/0118 29007KT P6SM SCT250
     FM010000 23006KT P6SM BKN050
     FM010500 23006KT P6SM SCT050
     FM011400 24007G15KT P6SM BKN250=



000
FTUS44 KLZK 301600 AAB
TAFPBF
TAF AMD
KPBF 301630Z 3017/0112 25009KT P6SM SCT020 BKN250
      TEMPO 3022/0102 5SM TSRA BR OVC040CB
     FM010200 22006KT P6SM SCT250=



000
FTUS44 KLZK 301600 AAB
TAFPBF
TAF AMD
KPBF 301630Z 3017/0112 25009KT P6SM SCT020 BKN250
      TEMPO 3022/0102 5SM TSRA BR OVC040CB
     FM010200 22006KT P6SM SCT250=



000
FTUS44 KLZK 301500 AAA
TAFPBF
TAF AMD
KPBF 301522Z 3015/0112 23009KT P6SM BKN015
     FM301700 20007KT P6SM SCT015 BKN250
      TEMPO 3022/0102 5SM TSRA BR OVC040CB
     FM010200 22006KT P6SM SCT250=



000
FTUS44 KLZK 301100
TAFHOT
TAF
KHOT 301127Z 3012/0112 26003KT P6SM BKN060
     FM301500 27007KT P6SM SCT060
     FM010100 26003KT P6SM SCT250=



000
FTUS44 KLZK 301100
TAFHRO
TAF
KHRO 301127Z 3012/0112 28003KT P6SM SCT250
     FM301500 29007KT P6SM SCT050
     FM010100 28005KT P6SM BKN250
     FM010900 20005KT P6SM VCSH BKN120=



000
FTUS44 KLZK 301100
TAFLIT
TAF
KLIT 301127Z 3012/0112 26006KT P6SM VCSH BKN050
     FM301500 26009KT P6SM SCT050
     FM010100 22006KT P6SM SCT250=



000
FTUS44 KLZK 301100
TAFPBF
TAF
KPBF 301127Z 3012/0112 21008KT P6SM BKN060
      TEMPO 3012/3015 -SHRA OVC040
     FM301500 27009KT P6SM SCT050
      TEMPO 3022/0102 5SM TSRA BR OVC040CB
     FM010200 22006KT P6SM SCT250=



000
FTUS44 KLZK 301100
TAFHRO
TAF
KHRO 301127Z 3012/0112 28003KT P6SM SCT250
     FM301500 29007KT P6SM SCT050
     FM010100 28005KT P6SM BKN250
     FM010900 20005KT P6SM VCSH BKN120=



000
FTUS44 KLZK 301100
TAFHOT
TAF
KHOT 301127Z 3012/0112 26003KT P6SM BKN060
     FM301500 27007KT P6SM SCT060
     FM010100 26003KT P6SM SCT250=



000
FTUS44 KLZK 300700 AAA
TAFPBF
TAF AMD
KPBF 300729Z 3007/0106 23004KT P6SM VCTS OVC050CB
     FM301000 26003KT P6SM SCT250
     FM301400 27009KT P6SM VCSH SCT050
     FM010100 22005KT P6SM VCSH BKN060=



000
FTUS44 KLZK 300700 AAA
TAFPBF
TAF AMD
KPBF 300729Z 3007/0106 23004KT P6SM VCTS OVC050CB
     FM301000 26003KT P6SM SCT250
     FM301400 27009KT P6SM VCSH SCT050
     FM010100 22005KT P6SM VCSH BKN060=



000
FTUS44 KLZK 300500
TAFPBF
TAF
KPBF 300538Z 3006/0106 23004KT P6SM SCT070
     FM300900 26003KT P6SM SCT250
     FM301400 27009KT P6SM VCSH SCT050
     FM010100 22005KT P6SM VCSH BKN060=



000
FTUS44 KLZK 300500
TAFHRO
TAF
KHRO 300538Z 3006/0106 28003KT P6SM SKC
     FM301400 29007KT P6SM SCT050
     FM010100 28005KT P6SM BKN050 PROB30 0103/0106 5SM TSRA BR
      OVC040CB=



000
FTUS44 KLZK 300500
TAFHOT
TAF
KHOT 300538Z 3006/0106 26004KT P6SM SCT120
     FM300900 26003KT P6SM SCT250
     FM301400 27007KT P6SM SCT050
     FM010100 24003KT P6SM SCT250=



000
FTUS44 KLZK 300500
TAFLIT
TAF
KLIT 300538Z 3006/0106 26004KT P6SM SCT070
     FM300900 26003KT P6SM SCT250
     FM301400 26009KT P6SM SCT050
     FM010100 23006KT P6SM SCT250=



000
FTUS44 KLZK 300500
TAFHOT
TAF
KHOT 300538Z 3006/0106 26004KT P6SM SCT120
     FM300900 26003KT P6SM SCT250
     FM301400 27007KT P6SM SCT050
     FM010100 24003KT P6SM SCT250=



000
FTUS44 KLZK 300500
TAFLIT
TAF
KLIT 300538Z 3006/0106 26004KT P6SM SCT070
     FM300900 26003KT P6SM SCT250
     FM301400 26009KT P6SM SCT050
     FM010100 23006KT P6SM SCT250=



000
FTUS44 KLZK 300500
TAFHRO
TAF
KHRO 300538Z 3006/0106 28003KT P6SM SKC
     FM301400 29007KT P6SM SCT050
     FM010100 28005KT P6SM BKN050 PROB30 0103/0106 5SM TSRA BR
      OVC040CB=



000
FTUS44 KLZK 300500
TAFPBF
TAF
KPBF 300538Z 3006/0106 23004KT P6SM SCT070
     FM300900 26003KT P6SM SCT250
     FM301400 27009KT P6SM VCSH SCT050
     FM010100 22005KT P6SM VCSH BKN060=



000
FTUS44 KLZK 300100 AAA
TAFHOT
TAF AMD
KHOT 300116Z 3001/3024 21005KT P6SM VCTS FEW040CB FEW070 SCT100
     FM300900 VRB03KT P6SM FEW250
     FM301200 26005KT P6SM BKN250=



000
FTUS44 KLZK 300100 AAA
TAFHOT
TAF AMD
KHOT 300116Z 3001/3024 21005KT P6SM VCTS FEW040CB FEW070 SCT100
     FM300900 VRB03KT P6SM FEW250
     FM301200 26005KT P6SM BKN250=



000
FTUS44 KLZK 292300
TAFHOT
TAF
KHOT 292320Z 3000/3024 26004KT P6SM VCSH SCT060 SCT120
     FM300900 VRB03KT P6SM FEW250
     FM301200 26005KT P6SM BKN250=



000
FTUS44 KLZK 292300
TAFHRO
TAF
KHRO 292320Z 3000/3024 31004KT P6SM FEW060
     FM300100 30002KT P6SM SKC
     FM301300 31005KT P6SM SKC=



000
FTUS44 KLZK 292300
TAFLIT
TAF
KLIT 292320Z 3000/3024 32006KT P6SM VCSH SCT060 SCT100
     FM301000 VRB03KT P6SM SCT250
     FM301600 28008KT P6SM BKN250=



000
FTUS44 KLZK 292300
TAFPBF
TAF
KPBF 292320Z 3000/3024 22007KT P6SM FEW060
     FM300300 VRB04KT P6SM VCSH SCT060 SCT100
     FM301200 24004KT P6SM SCT250
     FM301600 28007KT P6SM SCT250=



000
FTUS44 KLZK 291700
TAFHRO
TAF
KHRO 291736Z 2918/3018 29007KT P6SM FEW040
     FM300100 VRB03KT P6SM FEW250
     FM301300 30005KT P6SM SKC=



000
FTUS44 KLZK 291700
TAFPBF
TAF
KPBF 291736Z 2918/3018 24005KT P6SM FEW050 BKN100
     FM300100 23005KT P6SM BKN120
     FM300600 VRB03KT P6SM VCSH SCT100 OVC250
      TEMPO 3009/3012 -SHRA BKN050
     FM301400 24005KT P6SM SCT100 BKN250=



000
FTUS44 KLZK 291700
TAFHOT
TAF
KHOT 291736Z 2918/3018 26007KT P6SM FEW050 SCT250
     FM300100 30003KT P6SM SCT250
     FM300900 VRB03KT P6SM VCSH SCT050 OVC250
     FM301200 26005KT P6SM BKN250=



000
FTUS44 KLZK 291700
TAFLIT
TAF
KLIT 291736Z 2918/3018 25006KT P6SM FEW050 BKN250
     FM300100 29005KT P6SM BKN120
     FM300800 VRB03KT P6SM VCSH SCT050 OVC250
     FM301000 24005KT P6SM BKN250=



000
FTUS44 KLZK 291100
TAFHOT
TAF
KHOT 291136Z 2912/3012 26003KT P6SM BKN100
      TEMPO 2912/2915 -SHRA OVC040
     FM291500 26008KT P6SM SCT050 PROB30 2921/3001 5SM TSRA BR
      OVC040CB
     FM300100 30003KT P6SM SCT250=



000
FTUS44 KLZK 291100
TAFLIT
TAF
KLIT 291136Z 2912/3012 23007KT P6SM VCSH BKN100
     FM291500 26010G17KT P6SM SCT050 PROB30 2921/3001 5SM TSRA BR
      OVC040CB
     FM300100 29005KT P6SM BKN120=



000
FTUS44 KLZK 291100
TAFHRO
TAF
KHRO 291136Z 2912/3012 26010G19KT P6SM SCT080 BKN150
     FM291400 30010G20KT P6SM SCT050
     FM300100 31003KT P6SM SCT250=



000
FTUS44 KLZK 291100
TAFPBF
TAF
KPBF 291136Z 2912/3012 21005KT P6SM BKN100
     FM291500 24010G17KT P6SM VCSH SCT050
     FM291800 26010G17KT P6SM SCT050 PROB30 2921/3001 5SM TSRA BR
      OVC040CB
     FM300100 23005KT P6SM BKN120=



000
FTUS44 KLZK 291100
TAFHOT
TAF
KHOT 291136Z 2912/3012 26003KT P6SM BKN100
      TEMPO 2912/2915 -SHRA OVC040
     FM291500 26008KT P6SM SCT050 PROB30 2921/3001 5SM TSRA BR
      OVC040CB
     FM300100 30003KT P6SM SCT250=



000
FTUS44 KLZK 291100
TAFLIT
TAF
KLIT 291136Z 2912/3012 23007KT P6SM VCSH BKN100
     FM291500 26010G17KT P6SM SCT050 PROB30 2921/3001 5SM TSRA BR
      OVC040CB
     FM300100 29005KT P6SM BKN120=



000
FTUS44 KLZK 291100
TAFHRO
TAF
KHRO 291136Z 2912/3012 26010G19KT P6SM SCT080 BKN150
     FM291400 30010G20KT P6SM SCT050
     FM300100 31003KT P6SM SCT250=



000
FTUS44 KLZK 291100
TAFPBF
TAF
KPBF 291136Z 2912/3012 21005KT P6SM BKN100
     FM291500 24010G17KT P6SM VCSH SCT050
     FM291800 26010G17KT P6SM SCT050 PROB30 2921/3001 5SM TSRA BR
      OVC040CB
     FM300100 23005KT P6SM BKN120=



000
FTUS44 KLZK 290800 AAA
TAFHRO
TAF AMD
KHRO 290806Z 2908/3006 26010G19KT P6SM SCT120 OVC250
     FM291400 30008KT P6SM SCT050
     FM300100 31003KT P6SM SCT250=



000
FTUS44 KLZK 290500
TAFLIT
TAF
KLIT 290534Z 2906/3006 23005KT P6SM SCT250
     FM291400 26010G17KT P6SM SCT050
     FM300100 28004KT P6SM SCT250=



000
FTUS44 KLZK 290500
TAFPBF
TAF
KPBF 290534Z 2906/3006 21005KT P6SM SCT250
     FM291400 24009G16KT P6SM SCT050
     FM300100 22005KT P6SM SCT250=



000
FTUS44 KLZK 290500
TAFHOT
TAF
KHOT 290534Z 2906/3006 26003KT P6SM SCT250
     FM291400 26008KT P6SM SCT050
     FM300100 30003KT P6SM SCT250=



000
FTUS44 KLZK 290500
TAFHRO
TAF
KHRO 290534Z 2906/3006 26007KT P6SM VCSH OVC250
     FM291400 30008KT P6SM SCT050
     FM300100 31003KT P6SM SCT250=



000
FTUS44 KLZK 282300
TAFLIT
TAF
KLIT 282331Z 2900/2924 22005KT P6SM SCT250
     FM291400 26009G16KT P6SM SCT050 SCT250=



000
FTUS44 KLZK 282300
TAFHOT
TAF
KHOT 282331Z 2900/2924 VRB03KT P6SM SCT250
     FM291400 26007KT P6SM SCT050 SCT250=



000
FTUS44 KLZK 282300
TAFHRO
TAF
KHRO 282331Z 2900/2924 22005KT P6SM FEW050 SCT250
     FM290500 26005KT P6SM VCSH SCT120 BKN250
     FM291400 30008KT P6SM SCT050 SCT250=



000
FTUS44 KLZK 282300
TAFPBF
TAF
KPBF 282331Z 2900/2924 21005KT P6SM SCT250
     FM291400 24009G16KT P6SM SCT050 SCT250=



000
FTUS44 KLZK 282300
TAFLIT
TAF
KLIT 282331Z 2900/2924 22005KT P6SM SCT250
     FM291400 26009G16KT P6SM SCT050 SCT250=



000
FTUS44 KLZK 282300
TAFHOT
TAF
KHOT 282331Z 2900/2924 VRB03KT P6SM SCT250
     FM291400 26007KT P6SM SCT050 SCT250=



000
FTUS44 KLZK 282300
TAFHRO
TAF
KHRO 282331Z 2900/2924 22005KT P6SM FEW050 SCT250
     FM290500 26005KT P6SM VCSH SCT120 BKN250
     FM291400 30008KT P6SM SCT050 SCT250=



000
FTUS44 KLZK 282300
TAFPBF
TAF
KPBF 282331Z 2900/2924 21005KT P6SM SCT250
     FM291400 24009G16KT P6SM SCT050 SCT250=



000
FTUS44 KLZK 281700
TAFPBF
TAF
KPBF 281720Z 2818/2918 22005KT P6SM SCT050 SCT250=



000
FTUS44 KLZK 281700
TAFLIT
TAF
KLIT 281720Z 2818/2918 22007KT P6SM SCT050
     FM290300 21004KT P6SM SCT080 SCT250=



000
FTUS44 KLZK 281700
TAFHRO
TAF
KHRO 281720Z 2818/2918 23007KT P6SM SCT050
     FM290100 21005KT P6SM SCT120
     FM290500 26005KT P6SM VCSH BKN050
     FM291400 28005KT P6SM SCT250=



000
FTUS44 KLZK 281700
TAFHOT
TAF
KHOT 281720Z 2818/2918 24005KT P6SM SCT050
     FM290300 23003KT P6SM BKN080=



    US Dept of Commerce
    National Oceanic and Atmospheric Administration
    National Weather Service
    1325 East West Highway
    Silver Spring, MD 20910
    Page Author: NWS Internet Services Team
Disclaimer
Information Quality
Credits
Glossary
Privacy Policy
Freedom of Information Act (FOIA)
About Us
Career Opportunities